»·PEaware :: N3141P KBFL-KGCN

N3141P :: KBFL-KGCN

FLIGHT INFORMATION

Flight Status: Arrived
Operator: Privately registered:
United States
More flights under this callsign
Pilot: Andrew N. (12823)
Aircraft: PILATUS PC-12 EAGLE
(PC12)
More flights by this aircraft type
Origin: KBFL Meadows
United States
Destination: KGCN Grand Canyon Natl Park
United States
More flights between these airports :: More routes between these airports
Route: +MEADO3 PMD J6 HEC PGS GCN
File this flight plan on PilotEdge
Remarks:
Altitude:
(Current/Filed)
30,000ft
Speed:
(Current/Filed)
250kts
Departed: 23-Sep-18 09:50 AM
Arrived: 23-Sep-18 11:17 AM
Distance/Time
Traveled:
339nm/1:26
Distance/Time
To Go:
Arrived

Flight Plot

Page will automatically refresh every two minutes.

Flight plan parsing failed; only flown route is shown


Map Options




Map Legend


Flown Route
Filed Route
Departure Airport
Arrival Airport
Navaid (VOR, NDB)
Fix

Horizontal Profiles

Position Reports

Time Latitude Longitude Heading Altitude Ground
Speed
23-Sep-18 09:28 35.435119 -119.053406 222 497ft 0kts
23-Sep-18 09:29 35.435119 -119.053406 222 497ft 0kts
23-Sep-18 09:30 35.435119 -119.053406 222 497ft 0kts
23-Sep-18 09:31 35.435119 -119.053406 222 497ft 0kts
23-Sep-18 09:32 35.435119 -119.053406 222 497ft 0kts
23-Sep-18 09:33 35.435119 -119.053406 222 497ft 0kts
23-Sep-18 09:34 35.435119 -119.053406 222 497ft 0kts
23-Sep-18 09:35 35.435119 -119.053406 222 497ft 0kts
23-Sep-18 09:36 35.435119 -119.053406 222 497ft 0kts
23-Sep-18 09:37 35.435119 -119.053406 222 497ft 0kts
23-Sep-18 09:38 35.435119 -119.053406 222 497ft 0kts
23-Sep-18 09:39 35.435119 -119.053406 222 497ft 0kts
23-Sep-18 09:40 35.435119 -119.053406 222 497ft 0kts
23-Sep-18 09:41 35.435119 -119.053406 222 497ft 0kts
23-Sep-18 09:42 35.435119 -119.053406 222 497ft 0kts
23-Sep-18 09:43 35.435119 -119.053406 222 497ft 0kts
23-Sep-18 09:44 35.435119 -119.053406 222 497ft 0kts
23-Sep-18 09:45 35.435119 -119.053406 222 497ft 0kts
23-Sep-18 09:46 35.435119 -119.053407 222 497ft 0kts
23-Sep-18 09:47 35.434539 -119.054251 224 497ft 0kts
23-Sep-18 09:48 35.434539 -119.054251 224 497ft 0kts
23-Sep-18 09:49 35.433632 -119.053719 135 497ft 14kts
23-Sep-18 09:50 35.431518 -119.052004 182 497ft 0kts
23-Sep-18 09:51 35.430898 -119.052620 322 497ft 14kts
23-Sep-18 09:52 35.442972 -119.067469 311 776ft 123kts
23-Sep-18 09:53 35.471645 -119.107321 311 2319ft 178kts
23-Sep-18 09:54 35.461979 -119.146637 155 4078ft 189kts
23-Sep-18 09:55 35.422359 -119.107926 138 6473ft 172kts
23-Sep-18 09:56 35.385323 -119.069386 141 8635ft 180kts
23-Sep-18 09:57 35.347117 -119.029491 141 10742ft 183kts
23-Sep-18 09:58 35.310682 -118.986180 134 12721ft 189kts
23-Sep-18 09:59 35.279839 -118.943216 135 14334ft 195kts
23-Sep-18 10:00 35.243444 -118.893189 136 16065ft 203kts
23-Sep-18 10:01 35.205255 -118.840850 137 17712ft 210kts
23-Sep-18 10:02 35.165674 -118.786684 137 19267ft 217kts
23-Sep-18 10:03 35.125301 -118.731485 138 20739ft 223kts
23-Sep-18 10:04 35.083475 -118.674410 138 22137ft 229kts
23-Sep-18 10:05 35.040607 -118.616009 138 23449ft 234kts
23-Sep-18 10:06 34.997461 -118.557247 139 24770ft 233kts
23-Sep-18 10:07 34.954161 -118.498514 140 25909ft 232kts
23-Sep-18 10:08 34.911158 -118.440265 140 26920ft 232kts
23-Sep-18 10:09 34.869810 -118.384338 139 27805ft 233kts
23-Sep-18 10:10 34.826849 -118.326293 140 28518ft 238kts
23-Sep-18 10:11 34.782324 -118.266252 140 29107ft 241kts
23-Sep-18 10:12 34.736935 -118.205168 140 29583ft 247kts
23-Sep-18 10:13 34.690326 -118.142529 140 29985ft 252kts
23-Sep-18 10:14 34.642379 -118.078269 138 30047ft 266kts
23-Sep-18 10:15 34.624787 -117.988103 80 30051ft 301kts
23-Sep-18 10:16 34.649911 -117.890379 84 30035ft 303kts
23-Sep-18 10:17 34.661500 -117.789222 86 30037ft 303kts
23-Sep-18 10:18 34.672417 -117.687589 86 30056ft 303kts
23-Sep-18 10:19 34.683216 -117.586308 86 30075ft 302kts
23-Sep-18 10:20 34.693914 -117.485141 86 30077ft 303kts
23-Sep-18 10:21 34.704498 -117.384247 86 30077ft 303kts
23-Sep-18 10:22 34.714944 -117.283918 87 30072ft 302kts
23-Sep-18 10:23 34.725377 -117.182778 87 30071ft 302kts
23-Sep-18 10:24 34.735762 -117.081271 87 30061ft 302kts
23-Sep-18 10:25 34.746064 -116.979703 87 30036ft 304kts
23-Sep-18 10:26 34.754632 -116.894595 87 30017ft 305kts
23-Sep-18 10:27 34.764808 -116.792758 86 30011ft 306kts
23-Sep-18 10:28 34.775300 -116.686826 86 30012ft 306kts
23-Sep-18 10:29 34.783684 -116.601422 86 30013ft 307kts
23-Sep-18 10:30 34.792741 -116.508548 86 30013ft 307kts
23-Sep-18 10:31 34.813124 -116.407780 70 30015ft 312kts
23-Sep-18 10:32 34.842636 -116.310261 72 30026ft 311kts
23-Sep-18 10:33 34.871816 -116.211822 72 30049ft 310kts
23-Sep-18 10:34 34.900925 -116.113269 72 30062ft 310kts
23-Sep-18 10:35 34.930139 -116.014034 72 30058ft 312kts
23-Sep-18 10:36 34.959399 -115.914306 72 30054ft 313kts
23-Sep-18 10:37 34.988706 -115.814066 71 30056ft 315kts
23-Sep-18 10:38 35.017943 -115.713710 71 30064ft 316kts
23-Sep-18 10:39 35.047307 -115.612570 71 30039ft 318kts
23-Sep-18 10:40 35.076880 -115.510381 71 29993ft 320kts
23-Sep-18 10:41 35.105764 -115.410176 71 29966ft 320kts
23-Sep-18 10:42 35.134737 -115.309354 72 29950ft 318kts
23-Sep-18 10:43 35.164178 -115.206437 72 29929ft 317kts
23-Sep-18 10:44 35.192399 -115.107440 72 29923ft 317kts
23-Sep-18 10:45 35.220740 -115.007710 72 29927ft 317kts
23-Sep-18 10:46 35.249360 -114.906620 72 29925ft 317kts
23-Sep-18 10:47 35.277585 -114.806559 72 29926ft 317kts
23-Sep-18 10:48 35.306175 -114.704831 72 29927ft 318kts
23-Sep-18 10:49 35.334758 -114.602752 72 29928ft 318kts
23-Sep-18 10:50 35.363227 -114.500698 72 29929ft 318kts
23-Sep-18 10:51 35.391674 -114.398348 72 29976ft 317kts
23-Sep-18 10:52 35.419644 -114.297217 73 29372ft 320kts
23-Sep-18 10:53 35.447959 -114.194518 73 27353ft 315kts
23-Sep-18 10:54 35.475672 -114.093671 74 25350ft 311kts
23-Sep-18 10:55 35.502657 -113.995140 74 23647ft 303kts
23-Sep-18 10:56 35.529768 -113.895735 74 21955ft 309kts
23-Sep-18 10:57 35.556828 -113.796197 74 20268ft 307kts
23-Sep-18 10:58 35.583479 -113.697780 74 18580ft 303kts
23-Sep-18 10:59 35.608833 -113.598898 76 16902ft 307kts
23-Sep-18 11:00 35.633189 -113.498812 76 15276ft 305kts
23-Sep-18 11:01 35.657105 -113.400103 76 13789ft 300kts
23-Sep-18 11:02 35.680131 -113.304727 76 12453ft 290kts
23-Sep-18 11:03 35.702415 -113.212181 76 11461ft 280kts
23-Sep-18 11:04 35.723959 -113.122370 76 10472ft 273kts
23-Sep-18 11:05 35.745406 -113.032608 76 9477ft 275kts
23-Sep-18 11:06 35.766598 -112.942106 76 9007ft 272kts
23-Sep-18 11:07 35.786801 -112.853274 76 9015ft 271kts
23-Sep-18 11:08 35.806622 -112.763443 76 9019ft 273kts
23-Sep-18 11:09 35.826405 -112.673149 76 9019ft 274kts
23-Sep-18 11:10 35.846298 -112.582462 76 9019ft 274kts
23-Sep-18 11:11 35.866181 -112.491938 75 9020ft 274kts
23-Sep-18 11:12 35.886136 -112.401219 75 9020ft 275kts
23-Sep-18 11:13 35.905892 -112.311478 76 8695ft 281kts
23-Sep-18 11:14 35.942897 -112.230817 39 8020ft 267kts
23-Sep-18 11:15 35.993077 -112.180111 39 7992ft 206kts
23-Sep-18 11:16 36.016400 -112.136039 124 7969ft 133kts
23-Sep-18 11:17 35.994248 -112.107923 200 7819ft 114kts
23-Sep-18 11:18 35.970342 -112.127847 221 7007ft 101kts
23-Sep-18 11:19 35.956411 -112.141333 118 6604ft 10kts
23-Sep-18 11:20 35.959246 -112.137840 39 6603ft 28kts
23-Sep-18 11:21 35.960390 -112.135881 219 6604ft 0kts
23-Sep-18 11:22 35.960390 -112.135881 219 6604ft 0kts
23-Sep-18 11:23 35.960390 -112.135881 219 6604ft 0kts
23-Sep-18 11:24 35.960390 -112.135881 219 6604ft 0kts
23-Sep-18 11:25 35.960390 -112.135881 219 6604ft 0kts
23-Sep-18 11:26 35.960390 -112.135881 219 6604ft 0kts
23-Sep-18 11:27 35.960390 -112.135881 219 6604ft 0kts
23-Sep-18 11:28 35.960390 -112.135881 219 6604ft 0kts
23-Sep-18 11:29 35.960390 -112.135881 219 6604ft 0kts
23-Sep-18 11:30 35.960390 -112.135881 219 6604ft 0kts
23-Sep-18 11:31 35.960390 -112.135881 219 6604ft 0kts
23-Sep-18 11:32 35.960390 -112.135881 219 6604ft 0kts
23-Sep-18 11:33 35.960390 -112.135881 219 6604ft 0kts

Navigation Log

Ident Type
Flight plan parsing failed, navigation log unavailable